Buffalo, WY (82834)

11:54 PM MST on November 25, 2014 (GMT -0700)
Esponda Ranch | Change Station
CLOSE
Current Station
Personal Weather Station
Location: Buffalo, WY
Elevation: 4665 ft
Nearby Weather Stations
Active Advisory: Winter Weather Advisory Active Notice: Public Information Statement

Elev 4665 ft 44.32 °N, 106.67 °W | Updated 3 minutes ago

Light Snow
Light Snow Mist
26.6 °F
Feels Like 18 °F
N
8.0
Wind Variable Wind from North
Gusts 8.0 mph

Today
High -- | Low -- °F
--% Chance of Precip.
Yesterday
High -- | Low -- °F
Precip. -- in
7:15 AM 4:31 PM
Waxing Crescent, 17% visible
Pressure 30.19 in
Visibility 4.0 miles
Clouds Overcast 3200 ft
Windchill 18 °F
Dew Point 23 °F
Humidity 87%
Rainfall 0.00 in
Snow Depth Not available.
UV 0 out of 12
Pollen .10 out of 12
Air Quality Not available.
Flu Activity Not available.
METAR KBYG 260553Z AUTO 33010KT 4SM -SN BR OVC032 M03/M06 A3011 RMK AO2 SLP224 P0000 60000 T10331056 11022 21033 51009

More Conditions Fewer Conditions

Pressure 30.19 in
Visibility 4.0 miles
Clouds Overcast 3200 ft
Windchill 18 °F
Dew Point 23 °F
Humidity 87%
Rainfall 0.00 in
Snow Depth Not available.
UV 0 out of 12
Pollen .10 out of 12
Air Quality Not available.
Flu Activity Not available.
METAR KBYG 260553Z AUTO 33010KT 4SM -SN BR OVC032 M03/M06 A3011 RMK AO2 SLP224 P0000 60000 T10331056 11022 21033 51009

More Conditions Fewer Conditions

10-Day Weather Forecast

Almanac

Astronomy

Nov. 25, 2014 Rise Set
Actual Time
Civil Twilight
Nautical Twilight
Astronomical Twilight
Moon
Length of Visible Light
Length of Day
Tomorrow will be .
, % of the Moon is Illuminated

Today's Extremes

State Highs State Lows

Community

WunderPhotos

Upload Photos

1,773,691 photos uploaded!

WunderBlogs® & News

Nearby

Air Quality

  Air Quality AQ Index Pollutant
Not available.

Snow Depth

Station Depth Elevation

Earthquake Activity

City Distance Mag. Time & Date
Minimum magnitude displayed is 2.5.

Coastal Water Temperatures

Place Temperature

Nearby Weather Stations